sensor_id;sensor_type;location;lat;lon;timestamp;temperature;humidity
69776;DHT22;57049;51.450;-2.516;2023-04-16T00:02:20;8.94;87.09
69776;DHT22;57049;51.450;-2.516;2023-04-16T00:04:47;8.96;87.08
69776;DHT22;57049;51.450;-2.516;2023-04-16T00:07:13;8.97;87.20
69776;DHT22;57049;51.450;-2.516;2023-04-16T00:09:38;8.96;87.28
69776;DHT22;57049;51.450;-2.516;2023-04-16T00:12:04;8.92;87.48
69776;DHT22;57049;51.450;-2.516;2023-04-16T00:14:30;8.91;87.36
69776;DHT22;57049;51.450;-2.516;2023-04-16T00:16:59;8.88;87.59
69776;DHT22;57049;51.450;-2.516;2023-04-16T00:19:24;8.85;87.61
69776;DHT22;57049;51.450;-2.516;2023-04-16T00:21:50;8.92;87.42
69776;DHT22;57049;51.450;-2.516;2023-04-16T00:24:19;8.87;87.57
69776;DHT22;57049;51.450;-2.516;2023-04-16T00:26:45;8.85;87.47
69776;DHT22;57049;51.450;-2.516;2023-04-16T00:29:14;8.87;86.91
69776;DHT22;57049;51.450;-2.516;2023-04-16T00:31:39;8.84;86.56
69776;DHT22;57049;51.450;-2.516;2023-04-16T00:34:05;8.83;86.51
69776;DHT22;57049;51.450;-2.516;2023-04-16T00:36:31;8.84;86.32
69776;DHT22;57049;51.450;-2.516;2023-04-16T00:38:56;8.77;86.39
69776;DHT22;57049;51.450;-2.516;2023-04-16T00:41:22;8.74;86.36
69776;DHT22;57049;51.450;-2.516;2023-04-16T00:43:48;8.71;86.59
69776;DHT22;57049;51.450;-2.516;2023-04-16T00:46:15;8.64;86.77
69776;DHT22;57049;51.450;-2.516;2023-04-16T00:48:43;8.63;86.92
69776;DHT22;57049;51.450;-2.516;2023-04-16T00:51:10;8.60;86.75
69776;DHT22;57049;51.450;-2.516;2023-04-16T00:53:37;8.56;86.62
69776;DHT22;57049;51.450;-2.516;2023-04-16T00:56:05;8.54;86.68
69776;DHT22;57049;51.450;-2.516;2023-04-16T00:58:33;8.49;86.54
69776;DHT22;57049;51.450;-2.516;2023-04-16T01:01:00;8.45;86.68
69776;DHT22;57049;51.450;-2.516;2023-04-16T01:03:56;8.45;86.38
69776;DHT22;57049;51.450;-2.516;2023-04-16T01:06:23;8.47;86.28
69776;DHT22;57049;51.450;-2.516;2023-04-16T01:08:49;8.45;86.75
69776;DHT22;57049;51.450;-2.516;2023-04-16T01:11:14;8.42;86.69
69776;DHT22;57049;51.450;-2.516;2023-04-16T01:13:49;8.47;86.55
69776;DHT22;57049;51.450;-2.516;2023-04-16T01:16:22;8.49;85.83
69776;DHT22;57049;51.450;-2.516;2023-04-16T01:18:48;8.49;85.95
69776;DHT22;57049;51.450;-2.516;2023-04-16T01:21:13;8.50;85.89
69776;DHT22;57049;51.450;-2.516;2023-04-16T01:23:40;8.47;86.00
69776;DHT22;57049;51.450;-2.516;2023-04-16T01:26:05;8.46;86.32
69776;DHT22;57049;51.450;-2.516;2023-04-16T01:28:31;8.45;86.48
69776;DHT22;57049;51.450;-2.516;2023-04-16T01:30:58;8.50;86.26
69776;DHT22;57049;51.450;-2.516;2023-04-16T01:33:24;8.49;86.43
69776;DHT22;57049;51.450;-2.516;2023-04-16T01:35:51;8.50;86.44
69776;DHT22;57049;51.450;-2.516;2023-04-16T01:38:16;8.49;86.47
69776;DHT22;57049;51.450;-2.516;2023-04-16T01:40:42;8.47;86.86
69776;DHT22;57049;51.450;-2.516;2023-04-16T01:43:09;8.43;86.86
69776;DHT22;57049;51.450;-2.516;2023-04-16T01:45:35;8.43;86.50
69776;DHT22;57049;51.450;-2.516;2023-04-16T01:48:00;8.46;86.36
69776;DHT22;57049;51.450;-2.516;2023-04-16T01:50:29;8.46;86.52
69776;DHT22;57049;51.450;-2.516;2023-04-16T01:52:56;8.52;86.22
69776;DHT22;57049;51.450;-2.516;2023-04-16T01:55:22;8.56;86.28
69776;DHT22;57049;51.450;-2.516;2023-04-16T01:57:48;8.63;86.34
69776;DHT22;57049;51.450;-2.516;2023-04-16T02:00:15;8.59;86.72
69776;DHT22;57049;51.450;-2.516;2023-04-16T02:02:41;8.61;86.75
69776;DHT22;57049;51.450;-2.516;2023-04-16T02:05:06;8.61;86.81
69776;DHT22;57049;51.450;-2.516;2023-04-16T02:07:32;8.68;86.77
69776;DHT22;57049;51.450;-2.516;2023-04-16T02:09:59;8.74;86.60
69776;DHT22;57049;51.450;-2.516;2023-04-16T02:12:25;8.71;86.80
69776;DHT22;57049;51.450;-2.516;2023-04-16T02:14:51;8.64;87.00
69776;DHT22;57049;51.450;-2.516;2023-04-16T02:17:17;8.60;86.96
69776;DHT22;57049;51.450;-2.516;2023-04-16T02:19:43;8.56;87.19
69776;DHT22;57049;51.450;-2.516;2023-04-16T02:22:12;8.53;87.49
69776;DHT22;57049;51.450;-2.516;2023-04-16T02:24:39;8.50;87.77
69776;DHT22;57049;51.450;-2.516;2023-04-16T02:27:05;8.45;87.45
69776;DHT22;57049;51.450;-2.516;2023-04-16T02:29:30;8.45;87.39
69776;DHT22;57049;51.450;-2.516;2023-04-16T02:31:56;8.43;87.63
69776;DHT22;57049;51.450;-2.516;2023-04-16T02:34:21;8.37;88.09
69776;DHT22;57049;51.450;-2.516;2023-04-16T02:36:47;8.33;87.89
69776;DHT22;57049;51.450;-2.516;2023-04-16T02:39:12;8.30;87.92
69776;DHT22;57049;51.450;-2.516;2023-04-16T02:41:38;8.30;88.17
69776;DHT22;57049;51.450;-2.516;2023-04-16T02:44:05;8.26;88.36
69776;DHT22;57049;51.450;-2.516;2023-04-16T02:46:32;8.26;89.20
69776;DHT22;57049;51.450;-2.516;2023-04-16T02:48:57;8.25;88.99
69776;DHT22;57049;51.450;-2.516;2023-04-16T02:51:24;8.24;89.20
69776;DHT22;57049;51.450;-2.516;2023-04-16T02:53:51;8.26;89.07
69776;DHT22;57049;51.450;-2.516;2023-04-16T02:56:19;8.28;89.23
69776;DHT22;57049;51.450;-2.516;2023-04-16T02:58:44;8.28;89.49
69776;DHT22;57049;51.450;-2.516;2023-04-16T03:01:10;8.40;89.03
69776;DHT22;57049;51.450;-2.516;2023-04-16T03:03:36;8.37;89.11
69776;DHT22;57049;51.450;-2.516;2023-04-16T03:06:01;8.35;89.41
69776;DHT22;57049;51.450;-2.516;2023-04-16T03:08:27;8.32;89.11
69776;DHT22;57049;51.450;-2.516;2023-04-16T03:10:53;8.32;89.04
69776;DHT22;57049;51.450;-2.516;2023-04-16T03:13:18;8.32;88.79
69776;DHT22;57049;51.450;-2.516;2023-04-16T03:15:49;8.30;88.60
69776;DHT22;57049;51.450;-2.516;2023-04-16T03:18:15;8.33;88.30
69776;DHT22;57049;51.450;-2.516;2023-04-16T03:20:41;8.32;88.71
69776;DHT22;57049;51.450;-2.516;2023-04-16T03:23:08;8.25;89.24
69776;DHT22;57049;51.450;-2.516;2023-04-16T03:25:33;8.22;89.56
69776;DHT22;57049;51.450;-2.516;2023-04-16T03:27:59;8.22;89.55
69776;DHT22;57049;51.450;-2.516;2023-04-16T03:30:25;8.17;89.49
69776;DHT22;57049;51.450;-2.516;2023-04-16T03:32:50;8.17;89.68
69776;DHT22;57049;51.450;-2.516;2023-04-16T03:35:16;8.16;89.86
69776;DHT22;57049;51.450;-2.516;2023-04-16T03:37:42;8.17;89.91
69776;DHT22;57049;51.450;-2.516;2023-04-16T03:40:08;8.15;89.97
69776;DHT22;57049;51.450;-2.516;2023-04-16T03:42:34;8.13;90.04
69776;DHT22;57049;51.450;-2.516;2023-04-16T03:44:59;8.13;90.04
69776;DHT22;57049;51.450;-2.516;2023-04-16T03:47:26;8.10;90.00
69776;DHT22;57049;51.450;-2.516;2023-04-16T03:49:54;8.10;90.24
69776;DHT22;57049;51.450;-2.516;2023-04-16T03:52:19;8.09;90.25
69776;DHT22;57049;51.450;-2.516;2023-04-16T03:54:45;8.07;90.62
69776;DHT22;57049;51.450;-2.516;2023-04-16T03:57:11;8.06;90.77
69776;DHT22;57049;51.450;-2.516;2023-04-16T03:59:36;8.05;90.93
69776;DHT22;57049;51.450;-2.516;2023-04-16T04:02:02;8.07;90.94
69776;DHT22;57049;51.450;-2.516;2023-04-16T04:04:28;8.10;91.12
69776;DHT22;57049;51.450;-2.516;2023-04-16T04:06:55;8.07;91.57
69776;DHT22;57049;51.450;-2.516;2023-04-16T04:09:22;8.10;91.44
69776;DHT22;57049;51.450;-2.516;2023-04-16T04:11:51;8.09;91.18
69776;DHT22;57049;51.450;-2.516;2023-04-16T04:14:17;8.06;91.17
69776;DHT22;57049;51.450;-2.516;2023-04-16T04:16:44;8.09;91.15
69776;DHT22;57049;51.450;-2.516;2023-04-16T04:19:13;8.09;91.44
69776;DHT22;57049;51.450;-2.516;2023-04-16T04:21:39;8.12;91.23
69776;DHT22;57049;51.450;-2.516;2023-04-16T04:24:04;8.12;91.19
69776;DHT22;57049;51.450;-2.516;2023-04-16T04:26:30;8.15;91.35
69776;DHT22;57049;51.450;-2.516;2023-04-16T04:28:56;8.16;91.68
69776;DHT22;57049;51.450;-2.516;2023-04-16T04:31:24;8.16;91.26
69776;DHT22;57049;51.450;-2.516;2023-04-16T04:33:52;8.16;90.97
69776;DHT22;57049;51.450;-2.516;2023-04-16T04:36:18;8.22;90.68
69776;DHT22;57049;51.450;-2.516;2023-04-16T04:38:43;8.26;90.55
69776;DHT22;57049;51.450;-2.516;2023-04-16T04:41:09;8.33;90.20
69776;DHT22;57049;51.450;-2.516;2023-04-16T04:43:36;8.35;90.19
69776;DHT22;57049;51.450;-2.516;2023-04-16T04:46:04;8.28;90.91
69776;DHT22;57049;51.450;-2.516;2023-04-16T04:48:31;8.35;90.33
69776;DHT22;57049;51.450;-2.516;2023-04-16T04:50:57;8.30;90.68
69776;DHT22;57049;51.450;-2.516;2023-04-16T04:53:22;8.28;91.11
69776;DHT22;57049;51.450;-2.516;2023-04-16T04:55:48;8.24;91.68
69776;DHT22;57049;51.450;-2.516;2023-04-16T04:58:17;8.21;91.76
69776;DHT22;57049;51.450;-2.516;2023-04-16T05:00:50;8.22;91.70
69776;DHT22;57049;51.450;-2.516;2023-04-16T05:03:20;8.21;92.29
69776;DHT22;57049;51.450;-2.516;2023-04-16T05:05:46;8.19;92.74
69776;DHT22;57049;51.450;-2.516;2023-04-16T05:08:12;8.17;92.61
69776;DHT22;57049;51.450;-2.516;2023-04-16T05:10:38;8.16;92.67
69776;DHT22;57049;51.450;-2.516;2023-04-16T05:13:07;8.15;92.94
69776;DHT22;57049;51.450;-2.516;2023-04-16T05:15:32;8.19;92.98
69776;DHT22;57049;51.450;-2.516;2023-04-16T05:17:58;8.25;93.07
69776;DHT22;57049;51.450;-2.516;2023-04-16T05:20:23;8.26;93.10
69776;DHT22;57049;51.450;-2.516;2023-04-16T05:22:50;8.25;93.37
69776;DHT22;57049;51.450;-2.516;2023-04-16T05:25:15;8.36;93.05
69776;DHT22;57049;51.450;-2.516;2023-04-16T05:27:42;8.33;93.26
69776;DHT22;57049;51.450;-2.516;2023-04-16T05:30:08;8.29;93.02
69776;DHT22;57049;51.450;-2.516;2023-04-16T05:32:34;8.32;92.97
69776;DHT22;57049;51.450;-2.516;2023-04-16T05:35:00;8.30;93.02
69776;DHT22;57049;51.450;-2.516;2023-04-16T05:37:25;8.35;92.93
69776;DHT22;57049;51.450;-2.516;2023-04-16T05:39:51;8.29;93.24
69776;DHT22;57049;51.450;-2.516;2023-04-16T05:42:17;8.28;93.36
69776;DHT22;57049;51.450;-2.516;2023-04-16T05:44:42;8.33;93.03
69776;DHT22;57049;51.450;-2.516;2023-04-16T05:47:08;8.33;92.68
69776;DHT22;57049;51.450;-2.516;2023-04-16T05:49:34;8.32;92.94
69776;DHT22;57049;51.450;-2.516;2023-04-16T05:52:02;8.32;92.87
69776;DHT22;57049;51.450;-2.516;2023-04-16T05:54:28;8.30;93.06
69776;DHT22;57049;51.450;-2.516;2023-04-16T05:56:53;8.30;93.21
69776;DHT22;57049;51.450;-2.516;2023-04-16T05:59:19;8.35;93.44
69776;DHT22;57049;51.450;-2.516;2023-04-16T06:01:44;8.36;93.34
69776;DHT22;57049;51.450;-2.516;2023-04-16T06:04:12;8.43;93.20
69776;DHT22;57049;51.450;-2.516;2023-04-16T06:06:37;8.45;93.31
69776;DHT22;57049;51.450;-2.516;2023-04-16T06:09:04;8.49;93.45
69776;DHT22;57049;51.450;-2.516;2023-04-16T06:11:30;8.52;93.22
69776;DHT22;57049;51.450;-2.516;2023-04-16T06:13:55;8.53;93.20
69776;DHT22;57049;51.450;-2.516;2023-04-16T06:16:21;8.54;93.15
69776;DHT22;57049;51.450;-2.516;2023-04-16T06:18:46;8.64;92.69
69776;DHT22;57049;51.450;-2.516;2023-04-16T06:21:14;8.71;92.24
69776;DHT22;57049;51.450;-2.516;2023-04-16T06:23:39;8.63;92.64
69776;DHT22;57049;51.450;-2.516;2023-04-16T06:26:05;8.71;92.60
69776;DHT22;57049;51.450;-2.516;2023-04-16T06:28:31;8.81;91.79
69776;DHT22;57049;51.450;-2.516;2023-04-16T06:30:56;8.74;92.29
69776;DHT22;57049;51.450;-2.516;2023-04-16T06:33:23;8.90;91.83
69776;DHT22;57049;51.450;-2.516;2023-04-16T06:35:50;8.97;91.58
69776;DHT22;57049;51.450;-2.516;2023-04-16T06:38:16;9.10;91.18
69776;DHT22;57049;51.450;-2.516;2023-04-16T06:40:41;9.08;91.49
69776;DHT22;57049;51.450;-2.516;2023-04-16T06:43:07;9.14;91.17
69776;DHT22;57049;51.450;-2.516;2023-04-16T06:45:33;9.19;90.82
69776;DHT22;57049;51.450;-2.516;2023-04-16T06:47:59;9.28;90.72
69776;DHT22;57049;51.450;-2.516;2023-04-16T06:50:26;9.31;90.86
69776;DHT22;57049;51.450;-2.516;2023-04-16T06:52:53;9.31;90.47
69776;DHT22;57049;51.450;-2.516;2023-04-16T06:55:19;9.32;90.21
69776;DHT22;57049;51.450;-2.516;2023-04-16T06:57:45;9.31;90.45
69776;DHT22;57049;51.450;-2.516;2023-04-16T07:00:10;9.39;90.01
69776;DHT22;57049;51.450;-2.516;2023-04-16T07:02:37;9.48;89.88
69776;DHT22;57049;51.450;-2.516;2023-04-16T07:05:05;9.53;90.11
69776;DHT22;57049;51.450;-2.516;2023-04-16T07:07:31;9.66;90.01
69776;DHT22;57049;51.450;-2.516;2023-04-16T07:09:58;9.76;89.23
69776;DHT22;57049;51.450;-2.516;2023-04-16T07:12:23;9.89;88.71
69776;DHT22;57049;51.450;-2.516;2023-04-16T07:14:49;10.06;88.45
69776;DHT22;57049;51.450;-2.516;2023-04-16T07:17:14;10.07;88.32
69776;DHT22;57049;51.450;-2.516;2023-04-16T07:19:40;10.13;88.21
69776;DHT22;57049;51.450;-2.516;2023-04-16T07:22:06;10.21;88.25
69776;DHT22;57049;51.450;-2.516;2023-04-16T07:24:33;10.27;88.51
69776;DHT22;57049;51.450;-2.516;2023-04-16T07:26:59;10.29;88.41
69776;DHT22;57049;51.450;-2.516;2023-04-16T07:29:25;10.37;88.29
69776;DHT22;57049;51.450;-2.516;2023-04-16T07:31:50;10.36;88.61
69776;DHT22;57049;51.450;-2.516;2023-04-16T07:34:16;10.34;88.38
69776;DHT22;57049;51.450;-2.516;2023-04-16T07:36:41;10.47;87.66
69776;DHT22;57049;51.450;-2.516;2023-04-16T07:39:07;10.36;88.02
69776;DHT22;57049;51.450;-2.516;2023-04-16T07:41:32;10.34;88.95
69776;DHT22;57049;51.450;-2.516;2023-04-16T07:43:58;10.40;89.06
69776;DHT22;57049;51.450;-2.516;2023-04-16T07:46:24;10.48;88.20
69776;DHT22;57049;51.450;-2.516;2023-04-16T07:48:49;10.62;88.23
69776;DHT22;57049;51.450;-2.516;2023-04-16T07:51:15;10.69;87.85
69776;DHT22;57049;51.450;-2.516;2023-04-16T07:53:40;10.84;87.84
69776;DHT22;57049;51.450;-2.516;2023-04-16T07:56:07;10.92;87.58
69776;DHT22;57049;51.450;-2.516;2023-04-16T07:58:33;11.02;88.35
69776;DHT22;57049;51.450;-2.516;2023-04-16T08:00:58;11.15;88.19
69776;DHT22;57049;51.450;-2.516;2023-04-16T08:03:24;11.23;87.86
69776;DHT22;57049;51.450;-2.516;2023-04-16T08:05:49;11.26;87.63
69776;DHT22;57049;51.450;-2.516;2023-04-16T08:08:15;11.26;86.86
69776;DHT22;57049;51.450;-2.516;2023-04-16T08:10:41;11.22;86.48
69776;DHT22;57049;51.450;-2.516;2023-04-16T08:13:06;11.19;86.08
69776;DHT22;57049;51.450;-2.516;2023-04-16T08:15:32;11.12;86.07
69776;DHT22;57049;51.450;-2.516;2023-04-16T08:17:57;11.12;85.61
69776;DHT22;57049;51.450;-2.516;2023-04-16T08:20:24;11.16;85.10
69776;DHT22;57049;51.450;-2.516;2023-04-16T08:22:52;11.23;84.67
69776;DHT22;57049;51.450;-2.516;2023-04-16T08:25:17;11.27;85.02
69776;DHT22;57049;51.450;-2.516;2023-04-16T08:27:44;11.30;85.48
69776;DHT22;57049;51.450;-2.516;2023-04-16T08:30:10;11.39;84.59
69776;DHT22;57049;51.450;-2.516;2023-04-16T08:32:36;11.40;84.45
69776;DHT22;57049;51.450;-2.516;2023-04-16T08:35:02;11.49;84.81
69776;DHT22;57049;51.450;-2.516;2023-04-16T08:37:28;11.67;83.94
69776;DHT22;57049;51.450;-2.516;2023-04-16T08:39:53;11.70;83.53
69776;DHT22;57049;51.450;-2.516;2023-04-16T08:42:33;11.81;84.09
69776;DHT22;57049;51.450;-2.516;2023-04-16T08:47:36;12.02;82.85
69776;DHT22;57049;51.450;-2.516;2023-04-16T08:50:03;12.05;82.39
69776;DHT22;57049;51.450;-2.516;2023-04-16T08:52:30;11.97;82.75
69776;DHT22;57049;51.450;-2.516;2023-04-16T08:55:11;11.97;81.51
69776;DHT22;57049;51.450;-2.516;2023-04-16T08:57:41;11.99;80.94
69776;DHT22;57049;51.450;-2.516;2023-04-16T09:00:10;11.91;80.37
69776;DHT22;57049;51.450;-2.516;2023-04-16T09:02:36;11.93;81.48
69776;DHT22;57049;51.450;-2.516;2023-04-16T09:05:04;11.94;81.06
69776;DHT22;57049;51.450;-2.516;2023-04-16T09:07:31;12.02;80.68
69776;DHT22;57049;51.450;-2.516;2023-04-16T09:09:58;11.98;79.95
69776;DHT22;57049;51.450;-2.516;2023-04-16T09:12:24;12.01;80.38
69776;DHT22;57049;51.450;-2.516;2023-04-16T09:14:50;11.99;80.29
69776;DHT22;57049;51.450;-2.516;2023-04-16T09:17:17;11.99;80.88
69776;DHT22;57049;51.450;-2.516;2023-04-16T09:19:43;11.94;80.89
69776;DHT22;57049;51.450;-2.516;2023-04-16T09:22:09;11.98;80.23
69776;DHT22;57049;51.450;-2.516;2023-04-16T09:24:34;11.94;80.07
69776;DHT22;57049;51.450;-2.516;2023-04-16T09:27:03;11.91;80.27
69776;DHT22;57049;51.450;-2.516;2023-04-16T09:29:36;11.99;79.35
69776;DHT22;57049;51.450;-2.516;2023-04-16T09:32:04;12.07;79.35
69776;DHT22;57049;51.450;-2.516;2023-04-16T09:34:34;12.20;78.96
69776;DHT22;57049;51.450;-2.516;2023-04-16T09:37:16;12.38;79.44
69776;DHT22;57049;51.450;-2.516;2023-04-16T09:39:42;12.56;78.38
69776;DHT22;57049;51.450;-2.516;2023-04-16T09:42:09;12.76;77.44
69776;DHT22;57049;51.450;-2.516;2023-04-16T09:44:35;12.85;76.83
69776;DHT22;57049;51.450;-2.516;2023-04-16T09:47:05;12.99;76.20
69776;DHT22;57049;51.450;-2.516;2023-04-16T09:49:34;13.06;75.57
69776;DHT22;57049;51.450;-2.516;2023-04-16T09:52:08;13.09;76.28
69776;DHT22;57049;51.450;-2.516;2023-04-16T09:54:37;13.21;76.32
69776;DHT22;57049;51.450;-2.516;2023-04-16T09:57:07;13.28;76.31
69776;DHT22;57049;51.450;-2.516;2023-04-16T09:59:35;13.33;76.38
69776;DHT22;57049;51.450;-2.516;2023-04-16T10:02:01;13.27;75.69
69776;DHT22;57049;51.450;-2.516;2023-04-16T10:04:26;13.13;74.82
69776;DHT22;57049;51.450;-2.516;2023-04-16T10:07:05;13.14;75.08
69776;DHT22;57049;51.450;-2.516;2023-04-16T10:09:32;13.27;75.27
69776;DHT22;57049;51.450;-2.516;2023-04-16T10:12:05;13.36;74.97
69776;DHT22;57049;51.450;-2.516;2023-04-16T10:14:31;13.36;74.15
69776;DHT22;57049;51.450;-2.516;2023-04-16T10:16:58;13.27;73.60
69776;DHT22;57049;51.450;-2.516;2023-04-16T10:19:24;13.21;73.31
69776;DHT22;57049;51.450;-2.516;2023-04-16T10:21:51;13.07;74.13
69776;DHT22;57049;51.450;-2.516;2023-04-16T10:24:17;12.92;74.62
69776;DHT22;57049;51.450;-2.516;2023-04-16T10:26:43;12.83;74.62
69776;DHT22;57049;51.450;-2.516;2023-04-16T10:29:10;12.83;74.67
69776;DHT22;57049;51.450;-2.516;2023-04-16T10:31:37;12.72;75.30
69776;DHT22;57049;51.450;-2.516;2023-04-16T10:34:04;12.65;74.60
69776;DHT22;57049;51.450;-2.516;2023-04-16T10:36:35;12.53;74.39
69776;DHT22;57049;51.450;-2.516;2023-04-16T10:39:01;12.46;75.34
69776;DHT22;57049;51.450;-2.516;2023-04-16T10:41:27;12.48;75.27
69776;DHT22;57049;51.450;-2.516;2023-04-16T10:44:05;12.50;75.22
69776;DHT22;57049;51.450;-2.516;2023-04-16T10:46:36;12.50;75.34
69776;DHT22;57049;51.450;-2.516;2023-04-16T10:49:18;12.55;75.31
69776;DHT22;57049;51.450;-2.516;2023-04-16T10:51:57;12.60;75.36
69776;DHT22;57049;51.450;-2.516;2023-04-16T10:54:29;12.58;75.76
69776;DHT22;57049;51.450;-2.516;2023-04-16T10:57:16;12.50;75.51
69776;DHT22;57049;51.450;-2.516;2023-04-16T10:59:43;12.52;75.81
69776;DHT22;57049;51.450;-2.516;2023-04-16T11:02:13;12.56;76.96
69776;DHT22;57049;51.450;-2.516;2023-04-16T11:04:41;12.55;77.59
69776;DHT22;57049;51.450;-2.516;2023-04-16T11:09:57;12.63;76.70
69776;DHT22;57049;51.450;-2.516;2023-04-16T11:12:32;12.72;76.92
69776;DHT22;57049;51.450;-2.516;2023-04-16T11:15:00;12.93;76.37
69776;DHT22;57049;51.450;-2.516;2023-04-16T11:17:40;12.97;76.52
69776;DHT22;57049;51.450;-2.516;2023-04-16T11:20:07;12.97;76.20
69776;DHT22;57049;51.450;-2.516;2023-04-16T11:22:37;13.07;74.80
69776;DHT22;57049;51.450;-2.516;2023-04-16T11:25:03;12.97;75.71
69776;DHT22;57049;51.450;-2.516;2023-04-16T11:27:29;13.02;75.08
69776;DHT22;57049;51.450;-2.516;2023-04-16T11:29:59;13.26;75.20
69776;DHT22;57049;51.450;-2.516;2023-04-16T11:32:25;13.27;75.30
69776;DHT22;57049;51.450;-2.516;2023-04-16T11:34:51;13.47;74.82
69776;DHT22;57049;51.450;-2.516;2023-04-16T11:37:37;13.55;74.87
69776;DHT22;57049;51.450;-2.516;2023-04-16T11:40:04;13.50;73.40
69776;DHT22;57049;51.450;-2.516;2023-04-16T11:42:34;13.55;74.31
69776;DHT22;57049;51.450;-2.516;2023-04-16T11:45:06;13.53;74.13
69776;DHT22;57049;51.450;-2.516;2023-04-16T11:47:41;13.43;74.38
69776;DHT22;57049;51.450;-2.516;2023-04-16T11:50:27;13.36;75.40
69776;DHT22;57049;51.450;-2.516;2023-04-16T11:53:02;13.37;75.32
69776;DHT22;57049;51.450;-2.516;2023-04-16T11:55:27;13.40;75.04
69776;DHT22;57049;51.450;-2.516;2023-04-16T11:57:53;13.44;75.24
69776;DHT22;57049;51.450;-2.516;2023-04-16T12:00:18;13.34;74.77
69776;DHT22;57049;51.450;-2.516;2023-04-16T12:02:49;13.24;75.58
69776;DHT22;57049;51.450;-2.516;2023-04-16T12:05:35;13.40;75.10
69776;DHT22;57049;51.450;-2.516;2023-04-16T12:08:07;13.60;75.31
69776;DHT22;57049;51.450;-2.516;2023-04-16T12:10:51;13.81;75.76
69776;DHT22;57049;51.450;-2.516;2023-04-16T12:13:17;13.77;75.10
69776;DHT22;57049;51.450;-2.516;2023-04-16T12:15:53;13.83;75.53
69776;DHT22;57049;51.450;-2.516;2023-04-16T12:18:21;13.85;75.68
69776;DHT22;57049;51.450;-2.516;2023-04-16T12:20:47;13.97;76.17
69776;DHT22;57049;51.450;-2.516;2023-04-16T12:23:24;13.95;76.10
69776;DHT22;57049;51.450;-2.516;2023-04-16T12:25:50;14.11;75.28
69776;DHT22;57049;51.450;-2.516;2023-04-16T12:28:45;14.22;74.83
69776;DHT22;57049;51.450;-2.516;2023-04-16T12:31:11;14.28;74.55
69776;DHT22;57049;51.450;-2.516;2023-04-16T12:33:36;14.34;74.59
69776;DHT22;57049;51.450;-2.516;2023-04-16T12:36:16;14.32;74.80
69776;DHT22;57049;51.450;-2.516;2023-04-16T12:38:42;14.44;75.32
69776;DHT22;57049;51.450;-2.516;2023-04-16T12:41:08;14.62;75.18
69776;DHT22;57049;51.450;-2.516;2023-04-16T12:43:35;14.60;73.89
69776;DHT22;57049;51.450;-2.516;2023-04-16T12:46:00;14.62;73.77
69776;DHT22;57049;51.450;-2.516;2023-04-16T12:48:26;14.76;72.71
69776;DHT22;57049;51.450;-2.516;2023-04-16T12:50:53;14.76;73.47
69776;DHT22;57049;51.450;-2.516;2023-04-16T12:53:19;14.84;72.53
69776;DHT22;57049;51.450;-2.516;2023-04-16T12:55:44;14.94;72.10
69776;DHT22;57049;51.450;-2.516;2023-04-16T12:58:10;14.90;71.77
69776;DHT22;57049;51.450;-2.516;2023-04-16T13:00:35;14.74;72.67
69776;DHT22;57049;51.450;-2.516;2023-04-16T13:03:01;14.70;72.09
69776;DHT22;57049;51.450;-2.516;2023-04-16T13:05:26;14.55;72.92
69776;DHT22;57049;51.450;-2.516;2023-04-16T13:07:52;14.43;72.61
69776;DHT22;57049;51.450;-2.516;2023-04-16T13:10:20;14.39;73.93
69776;DHT22;57049;51.450;-2.516;2023-04-16T13:12:45;14.37;74.14
69776;DHT22;57049;51.450;-2.516;2023-04-16T13:15:11;14.36;74.32
69776;DHT22;57049;51.450;-2.516;2023-04-16T13:17:36;14.23;74.37
69776;DHT22;57049;51.450;-2.516;2023-04-16T13:20:02;14.25;74.34
69776;DHT22;57049;51.450;-2.516;2023-04-16T13:22:27;14.12;74.87
69776;DHT22;57049;51.450;-2.516;2023-04-16T13:24:53;14.15;75.73
69776;DHT22;57049;51.450;-2.516;2023-04-16T13:27:18;13.98;75.79
69776;DHT22;57049;51.450;-2.516;2023-04-16T13:29:44;13.92;76.42
69776;DHT22;57049;51.450;-2.516;2023-04-16T13:32:10;13.79;77.90
69776;DHT22;57049;51.450;-2.516;2023-04-16T13:34:38;13.64;79.29
69776;DHT22;57049;51.450;-2.516;2023-04-16T13:37:03;13.51;80.84
69776;DHT22;57049;51.450;-2.516;2023-04-16T13:39:29;13.50;81.75
69776;DHT22;57049;51.450;-2.516;2023-04-16T13:41:54;13.30;82.27
69776;DHT22;57049;51.450;-2.516;2023-04-16T13:44:19;13.30;82.85
69776;DHT22;57049;51.450;-2.516;2023-04-16T13:46:45;13.16;83.08
69776;DHT22;57049;51.450;-2.516;2023-04-16T13:49:12;13.21;83.86
69776;DHT22;57049;51.450;-2.516;2023-04-16T13:51:38;13.04;84.12
69776;DHT22;57049;51.450;-2.516;2023-04-16T13:54:03;13.09;84.43
69776;DHT22;57049;51.450;-2.516;2023-04-16T13:56:29;13.06;84.96
69776;DHT22;57049;51.450;-2.516;2023-04-16T13:58:54;13.03;85.01
69776;DHT22;57049;51.450;-2.516;2023-04-16T14:01:20;13.11;85.11
69776;DHT22;57049;51.450;-2.516;2023-04-16T14:03:45;13.31;84.75
69776;DHT22;57049;51.450;-2.516;2023-04-16T14:06:11;13.14;85.79
69776;DHT22;57049;51.450;-2.516;2023-04-16T14:08:37;13.30;85.43
69776;DHT22;57049;51.450;-2.516;2023-04-16T14:11:03;13.31;84.47
69776;DHT22;57049;51.450;-2.516;2023-04-16T14:13:30;13.19;85.56
69776;DHT22;57049;51.450;-2.516;2023-04-16T14:15:56;13.21;85.02
69776;DHT22;57049;51.450;-2.516;2023-04-16T14:18:21;13.24;85.56
69776;DHT22;57049;51.450;-2.516;2023-04-16T14:20:47;13.13;85.97
69776;DHT22;57049;51.450;-2.516;2023-04-16T14:23:12;13.23;86.50
69776;DHT22;57049;51.450;-2.516;2023-04-16T14:25:38;13.43;86.48
69776;DHT22;57049;51.450;-2.516;2023-04-16T14:28:04;13.68;84.56
69776;DHT22;57049;51.450;-2.516;2023-04-16T14:30:30;13.88;84.23
69776;DHT22;57049;51.450;-2.516;2023-04-16T14:32:56;13.99;83.03
69776;DHT22;57049;51.450;-2.516;2023-04-16T14:35:22;14.12;81.39
69776;DHT22;57049;51.450;-2.516;2023-04-16T14:37:47;14.01;81.39
69776;DHT22;57049;51.450;-2.516;2023-04-16T14:40:13;13.74;81.33
69776;DHT22;57049;51.450;-2.516;2023-04-16T14:42:38;13.72;82.19
69776;DHT22;57049;51.450;-2.516;2023-04-16T14:45:05;13.57;82.73
69776;DHT22;57049;51.450;-2.516;2023-04-16T14:47:31;13.70;81.70
69776;DHT22;57049;51.450;-2.516;2023-04-16T14:49:58;13.72;82.58
69776;DHT22;57049;51.450;-2.516;2023-04-16T14:52:24;13.74;81.26
69776;DHT22;57049;51.450;-2.516;2023-04-16T14:54:50;13.95;79.95
69776;DHT22;57049;51.450;-2.516;2023-04-16T14:57:16;13.97;79.58
69776;DHT22;57049;51.450;-2.516;2023-04-16T14:59:42;14.08;79.28
69776;DHT22;57049;51.450;-2.516;2023-04-16T15:02:07;14.13;79.75
69776;DHT22;57049;51.450;-2.516;2023-04-16T15:04:34;14.01;79.04
69776;DHT22;57049;51.450;-2.516;2023-04-16T15:06:59;14.19;79.43
69776;DHT22;57049;51.450;-2.516;2023-04-16T15:09:25;14.18;77.88
69776;DHT22;57049;51.450;-2.516;2023-04-16T15:11:53;14.18;78.17
69776;DHT22;57049;51.450;-2.516;2023-04-16T15:14:19;14.08;78.68
69776;DHT22;57049;51.450;-2.516;2023-04-16T15:16:45;14.09;77.80
69776;DHT22;57049;51.450;-2.516;2023-04-16T15:19:11;14.12;76.69
69776;DHT22;57049;51.450;-2.516;2023-04-16T15:21:36;14.04;75.39
69776;DHT22;57049;51.450;-2.516;2023-04-16T15:24:02;14.12;75.87
69776;DHT22;57049;51.450;-2.516;2023-04-16T15:26:29;13.99;76.49
69776;DHT22;57049;51.450;-2.516;2023-04-16T15:28:54;13.97;76.23